createdAt,value
2023-04-01T00:00:46.164Z,2.00
2023-04-01T00:02:48.021Z,1.00
2023-04-01T00:04:49.824Z,1.67
2023-04-01T00:06:51.452Z,1.50
2023-04-01T00:08:53.229Z,1.00
2023-04-01T00:10:56.239Z,1.50
2023-04-01T00:12:58.142Z,0.00
2023-04-01T00:15:03.363Z,0.75
2023-04-01T00:17:05.144Z,1.00
2023-04-01T00:19:06.833Z,1.00
2023-04-01T00:21:08.654Z,2.67
2023-04-01T00:23:10.545Z,1.00
2023-04-01T00:25:12.122Z,1.50
2023-04-01T00:27:15.669Z,1.00
2023-04-01T00:29:17.314Z,2.25
2023-04-01T00:31:19.552Z,2.25
2023-04-01T00:33:21.120Z,1.25
2023-04-01T00:35:22.756Z,2.00
2023-04-01T00:37:24.335Z,1.00
2023-04-01T00:39:25.921Z,2.33
2023-04-01T00:41:27.738Z,1.00
2023-04-01T00:43:30.960Z,1.33
2023-04-01T00:45:35.548Z,1.00
2023-04-01T00:47:37.646Z,1.33
2023-04-01T00:49:42.783Z,2.00
2023-04-01T00:51:47.111Z,2.00
2023-04-01T00:53:52.212Z,2.00
2023-04-01T00:56:01.046Z,1.00
2023-04-01T00:58:06.374Z,1.00
2023-04-01T01:00:13.927Z,1.67
2023-04-01T01:02:17.168Z,1.00
2023-04-01T01:04:24.383Z,1.00
2023-04-01T01:06:40.583Z,2.67
2023-04-01T01:09:02.306Z,1.67
2023-04-01T01:11:08.108Z,0.67
2023-04-01T01:13:15.372Z,2.33
2023-04-01T01:15:24.452Z,2.33
2023-04-01T01:17:37.837Z,1.00
2023-04-01T01:19:58.039Z,2.00
2023-04-01T01:22:24.088Z,2.33
2023-04-01T01:24:54.109Z,2.25
2023-04-01T01:27:01.887Z,2.00
2023-04-01T01:29:10.927Z,1.00
2023-04-01T01:31:22.334Z,2.00
2023-04-01T01:33:39.476Z,2.00
2023-04-01T01:35:48.382Z,0.00
2023-04-01T01:37:55.385Z,2.67
2023-04-01T01:40:02.816Z,4.00
2023-04-01T01:42:08.656Z,2.00
2023-04-01T01:44:16.151Z,2.33
2023-04-01T01:46:21.146Z,2.33
2023-04-01T01:48:26.210Z,1.67
2023-04-01T01:50:29.284Z,3.00
2023-04-01T01:52:35.035Z,2.33
2023-04-01T01:54:36.654Z,2.00
2023-04-01T01:56:39.679Z,5.33
2023-04-01T01:58:46.034Z,2.00
2023-04-01T02:00:53.572Z,5.33
2023-04-01T02:02:57.219Z,4.00
2023-04-01T02:05:00.022Z,2.33
2023-04-01T02:07:05.736Z,6.00
2023-04-01T02:09:11.579Z,1.67
2023-04-01T02:11:17.232Z,3.67
2023-04-01T02:13:28.002Z,2.67
2023-04-01T02:15:33.894Z,3.67
2023-04-01T02:17:40.590Z,3.00
2023-04-01T02:19:49.328Z,3.00
2023-04-01T02:21:55.140Z,2.33
2023-04-01T02:23:59.307Z,2.00
2023-04-01T02:26:03.612Z,3.00
2023-04-01T02:28:07.098Z,5.00
2023-04-01T02:30:10.023Z,3.00
2023-04-01T02:32:11.731Z,5.00
2023-04-01T02:34:15.018Z,5.00
2023-04-01T02:36:18.244Z,5.00
2023-04-01T02:38:20.117Z,4.33
2023-04-01T02:40:22.152Z,4.33
2023-04-01T02:42:25.331Z,2.67
2023-04-01T02:44:26.978Z,5.33
2023-04-01T02:46:28.604Z,3.00
2023-04-01T02:48:30.997Z,4.33
2023-04-01T02:50:33.008Z,5.67
2023-04-01T02:52:34.840Z,2.00
2023-04-01T02:54:37.492Z,6.33
2023-04-01T02:56:39.391Z,3.00
2023-04-01T02:58:42.431Z,6.00
2023-04-01T03:00:44.273Z,5.67
2023-04-01T03:02:46.356Z,2.67
2023-04-01T03:04:48.183Z,3.00
2023-04-01T03:06:49.941Z,4.33
2023-04-01T03:08:51.494Z,5.00
2023-04-01T03:10:53.061Z,3.00
2023-04-01T03:12:55.114Z,4.33
2023-04-01T03:14:58.574Z,5.67
2023-04-01T03:17:13.315Z,5.00
2023-04-01T03:19:14.936Z,2.67
2023-04-01T03:21:18.941Z,5.00
2023-04-01T03:23:21.025Z,5.67
2023-04-01T03:25:23.194Z,5.00
2023-04-01T03:27:25.154Z,5.00
2023-04-01T03:29:27.491Z,5.00
2023-04-01T03:31:30.593Z,6.00
2023-04-01T03:33:32.601Z,5.00
2023-04-01T03:35:34.727Z,5.00
2023-04-01T03:37:36.679Z,5.00
2023-04-01T03:39:38.271Z,9.33
2023-04-01T03:41:40.128Z,6.00
2023-04-01T03:43:41.939Z,5.00
2023-04-01T03:45:45.423Z,5.00
2023-04-01T03:47:48.842Z,6.00
2023-04-01T03:49:51.258Z,3.00
2023-04-01T03:51:52.909Z,3.00
2023-04-01T03:53:54.643Z,6.00
2023-04-01T03:55:56.733Z,6.67
2023-04-01T03:57:58.334Z,5.00
2023-04-01T04:00:00.314Z,1.00
2023-04-01T04:02:01.960Z,3.00
2023-04-01T04:04:06.059Z,5.33
2023-04-01T04:06:12.034Z,6.00
2023-04-01T04:08:16.854Z,5.00
2023-04-01T04:10:19.364Z,5.00
2023-04-01T04:12:20.939Z,5.00
2023-04-01T04:14:23.754Z,5.00
2023-04-01T04:16:25.413Z,6.00
2023-04-01T04:18:27.062Z,4.67
2023-04-01T04:20:30.164Z,6.33
2023-04-01T04:22:31.954Z,4.00
2023-04-01T04:24:35.149Z,5.33
2023-04-01T04:26:37.320Z,5.33
2023-04-01T04:28:40.043Z,5.00
2023-04-01T04:30:41.835Z,3.67
2023-04-01T04:32:43.716Z,5.00
2023-04-01T04:34:45.282Z,3.00
2023-04-01T04:36:48.427Z,2.33
2023-04-01T04:38:50.026Z,2.00
2023-04-01T04:40:51.798Z,5.00
2023-04-01T04:42:53.539Z,2.67
2023-04-01T04:44:55.556Z,2.67
2023-04-01T04:46:58.504Z,2.00
2023-04-01T04:49:00.527Z,2.00
2023-04-01T04:51:02.826Z,3.00
2023-04-01T04:53:06.289Z,2.33
2023-04-01T04:55:08.866Z,1.67
2023-04-01T04:57:10.618Z,3.00
2023-04-01T04:59:12.326Z,3.00
2023-04-01T05:01:15.727Z,5.33
2023-04-01T05:03:17.634Z,3.00
2023-04-01T05:05:19.938Z,3.00
2023-04-01T05:07:22.064Z,3.00
2023-04-01T05:09:25.437Z,5.00
2023-04-01T05:11:27.301Z,5.00
2023-04-01T05:13:28.936Z,4.33
2023-04-01T05:15:31.003Z,2.33
2023-04-01T05:17:32.786Z,3.00
2023-04-01T05:19:35.332Z,5.67
2023-04-01T05:21:37.105Z,2.67
2023-04-01T05:23:38.954Z,2.67
2023-04-01T05:25:42.562Z,1.67
2023-04-01T05:27:44.437Z,2.00
2023-04-01T05:29:46.036Z,2.00
2023-04-01T05:31:47.570Z,2.00
2023-04-01T05:33:49.140Z,2.67
2023-04-01T05:35:51.108Z,3.00
2023-04-01T05:37:52.826Z,2.00
2023-04-01T05:39:54.807Z,1.00
2023-04-01T05:41:58.818Z,2.00
2023-04-01T05:44:00.487Z,4.33
2023-04-01T05:46:02.091Z,7.00
2023-04-01T05:48:04.005Z,2.00
2023-04-01T05:50:06.309Z,1.67
2023-04-01T05:52:08.081Z,3.00
2023-04-01T05:54:09.682Z,2.33
2023-04-01T05:56:12.296Z,1.00
2023-04-01T05:58:17.767Z,1.33
2023-04-01T06:00:19.995Z,2.00
2023-04-01T06:02:21.605Z,2.33
2023-04-01T06:04:23.360Z,2.00
2023-04-01T06:06:26.767Z,2.33
2023-04-01T06:08:31.323Z,1.67
2023-04-01T06:10:42.263Z,2.00
2023-04-01T06:12:55.739Z,3.67
2023-04-01T06:15:11.949Z,1.33
2023-04-01T06:17:28.184Z,1.33
2023-04-01T06:19:41.159Z,2.00
2023-04-01T06:22:13.011Z,2.33
2023-04-01T06:24:37.853Z,2.00
2023-04-01T06:26:49.698Z,2.00
2023-04-01T06:29:06.199Z,1.67
2023-04-01T06:31:22.099Z,1.67
2023-04-01T06:33:41.475Z,1.33
2023-04-01T06:36:00.982Z,2.00
2023-04-01T06:38:27.029Z,1.33
2023-04-01T06:41:07.557Z,2.33
2023-04-01T06:43:17.743Z,2.00
2023-04-01T06:45:33.762Z,1.00
2023-04-01T06:47:49.573Z,2.67
2023-04-01T06:50:02.773Z,2.33
2023-04-01T06:52:16.404Z,2.33
2023-04-01T06:54:24.230Z,3.67
2023-04-01T06:56:28.756Z,4.33
2023-04-01T06:58:35.966Z,3.00
2023-04-01T07:00:42.019Z,5.00
2023-04-01T07:02:51.485Z,3.67
2023-04-01T07:04:56.614Z,4.33
2023-04-01T07:07:01.414Z,4.67
2023-04-01T07:09:08.402Z,3.00
2023-04-01T07:11:12.627Z,7.00
2023-04-01T07:13:20.212Z,5.33
2023-04-01T07:15:26.157Z,3.00
2023-04-01T07:17:31.178Z,3.00
2023-04-01T07:19:44.952Z,3.00
2023-04-01T07:21:50.004Z,2.00
2023-04-01T07:23:52.939Z,3.00
2023-04-01T07:25:59.490Z,2.00
2023-04-01T07:28:04.818Z,2.67
2023-04-01T07:30:15.281Z,2.33
2023-04-01T07:32:30.759Z,3.00
2023-04-01T07:34:42.621Z,2.67
2023-04-01T07:36:48.824Z,3.00
2023-04-01T07:39:06.930Z,6.00
2023-04-01T07:41:16.825Z,2.33
2023-04-01T07:43:33.399Z,5.00
2023-04-01T07:45:42.864Z,1.33
2023-04-01T07:48:02.648Z,2.00
2023-04-01T07:50:19.344Z,1.00
2023-04-01T07:52:30.972Z,3.00
2023-04-01T07:54:42.233Z,3.00
2023-04-01T07:56:53.874Z,2.00
2023-04-01T07:59:05.364Z,2.33
2023-04-01T08:01:18.689Z,4.00
2023-04-01T08:03:34.508Z,3.00
2023-04-01T08:05:45.722Z,2.33
2023-04-01T08:08:00.373Z,2.00
2023-04-01T08:10:10.236Z,5.67
2023-04-01T08:12:26.167Z,7.00
2023-04-01T08:14:33.707Z,2.00
2023-04-01T08:16:45.131Z,5.67
2023-04-01T08:19:01.302Z,3.00
2023-04-01T08:21:11.962Z,3.00
2023-04-01T08:23:17.327Z,2.33
2023-04-01T08:25:23.014Z,3.00
2023-04-01T08:27:32.434Z,3.00
2023-04-01T08:29:42.924Z,2.00
2023-04-01T08:31:51.164Z,2.00
2023-04-01T08:33:55.926Z,2.00
2023-04-01T08:36:03.392Z,4.33
2023-04-01T08:38:14.042Z,3.67
2023-04-01T08:40:36.764Z,3.00
2023-04-01T08:43:01.831Z,3.00
2023-04-01T08:45:17.144Z,2.67
2023-04-01T08:47:37.512Z,1.33
2023-04-01T08:50:02.526Z,2.00
2023-04-01T08:52:29.029Z,2.00
2023-04-01T08:54:56.388Z,1.67
2023-04-01T08:57:05.199Z,2.00
2023-04-01T08:59:22.924Z,2.00
2023-04-01T09:01:42.087Z,5.00
2023-04-01T09:04:00.150Z,2.00
2023-04-01T09:06:25.373Z,2.00
2023-04-01T09:08:40.230Z,1.00
2023-04-01T09:10:56.819Z,3.00
2023-04-01T09:13:15.378Z,2.00
2023-04-01T09:15:42.075Z,6.00
2023-04-01T09:18:04.529Z,2.00
2023-04-01T09:20:29.137Z,1.33
2023-04-01T09:22:43.672Z,3.00
2023-04-01T09:25:07.269Z,2.00
2023-04-01T09:27:27.319Z,3.67
2023-04-01T09:29:54.288Z,3.00
2023-04-01T09:32:21.050Z,3.00
2023-04-01T09:34:38.420Z,3.67
2023-04-01T09:36:46.355Z,8.00
2023-04-01T09:38:58.165Z,2.00
2023-04-01T09:41:13.558Z,10.67
2023-04-01T09:43:27.479Z,3.00
2023-04-01T09:45:42.365Z,5.67
2023-04-01T09:47:58.428Z,1.00
2023-04-01T09:50:26.327Z,5.00
2023-04-01T09:52:39.654Z,7.00
2023-04-01T09:54:59.315Z,4.33
2023-04-01T09:57:32.464Z,5.00
2023-04-01T10:00:11.512Z,4.33
2023-04-01T10:02:45.778Z,5.00
2023-04-01T10:05:34.276Z,5.67
2023-04-01T10:08:20.614Z,3.00
2023-04-01T10:10:52.158Z,5.00
2023-04-01T10:13:28.923Z,3.00
2023-04-01T10:16:04.302Z,0.00
2023-04-01T10:18:42.776Z,5.33
2023-04-01T10:21:02.451Z,2.00
2023-04-01T10:23:22.994Z,2.33
2023-04-01T10:25:49.289Z,2.33
2023-04-01T10:28:20.824Z,1.33
2023-04-01T10:30:53.624Z,7.00
2023-04-01T10:33:20.422Z,2.00
2023-04-01T10:35:42.585Z,5.00
2023-04-01T10:38:27.997Z,5.33
2023-04-01T10:40:59.136Z,3.00
2023-04-01T10:43:50.921Z,5.00
2023-04-01T10:46:34.423Z,5.00
2023-04-01T10:49:28.766Z,2.00
2023-04-01T10:52:03.192Z,1.33
2023-04-01T10:54:24.586Z,0.67
2023-04-01T10:57:00.675Z,2.00
2023-04-01T10:59:33.205Z,2.67
2023-04-01T11:02:09.911Z,5.00
2023-04-01T11:04:51.668Z,2.00
2023-04-01T11:07:23.503Z,2.00
2023-04-01T11:10:02.351Z,2.00
2023-04-01T11:12:39.459Z,1.00
2023-04-01T11:15:17.271Z,2.67
2023-04-01T11:17:40.238Z,2.00
2023-04-01T11:20:21.762Z,2.00
2023-04-01T11:22:46.810Z,3.00
2023-04-01T11:25:15.369Z,2.33
2023-04-01T11:27:35.256Z,2.67
2023-04-01T11:30:09.686Z,3.00
2023-04-01T11:32:28.443Z,4.33
2023-04-01T11:34:48.490Z,2.00
2023-04-01T11:37:02.123Z,2.00
2023-04-01T11:39:18.718Z,2.33
2023-04-01T11:41:32.711Z,2.33
2023-04-01T11:43:45.364Z,2.67
2023-04-01T11:45:56.914Z,3.00
2023-04-01T11:48:15.068Z,2.00
2023-04-01T11:50:28.516Z,3.00
2023-04-01T11:52:54.623Z,2.00
2023-04-01T11:55:10.095Z,2.00
2023-04-01T11:57:36.116Z,1.00
2023-04-01T11:59:53.657Z,2.00
2023-04-01T12:02:06.993Z,1.67
2023-04-01T12:04:40.083Z,4.00
2023-04-01T12:06:49.768Z,1.00
2023-04-01T12:09:01.495Z,1.00
2023-04-01T12:11:10.229Z,2.00
2023-04-01T12:13:26.061Z,2.00
2023-04-01T12:15:36.027Z,1.67
2023-04-01T12:17:44.283Z,6.33
2023-04-01T12:19:52.464Z,2.67
2023-04-01T12:22:11.923Z,2.00
2023-04-01T12:24:46.372Z,1.67
2023-04-01T12:27:10.633Z,2.00
2023-04-01T12:29:38.502Z,6.00
2023-04-01T12:31:54.139Z,3.00
2023-04-01T12:34:17.344Z,3.00
2023-04-01T12:36:37.350Z,3.00
2023-04-01T12:38:52.818Z,1.33
2023-04-01T12:41:10.212Z,3.67
2023-04-01T12:43:46.098Z,2.00
2023-04-01T12:46:00.207Z,2.67
2023-04-01T12:48:32.099Z,1.33
2023-04-01T12:50:53.849Z,1.33
2023-04-01T12:53:09.158Z,1.00
2023-04-01T12:55:36.222Z,2.00
2023-04-01T12:57:57.017Z,1.00
2023-04-01T13:00:22.160Z,3.00
2023-04-01T13:02:39.935Z,1.00
2023-04-01T13:05:21.785Z,3.00
2023-04-01T13:07:51.415Z,3.00
2023-04-01T13:10:01.649Z,1.00
2023-04-01T13:12:21.429Z,1.00
2023-04-01T13:14:35.709Z,1.67
2023-04-01T13:16:41.537Z,1.00
2023-04-01T13:19:00.340Z,1.33
2023-04-01T13:21:13.869Z,2.33
2023-04-01T13:23:29.824Z,1.33
2023-04-01T13:25:40.356Z,7.00
2023-04-01T13:27:45.216Z,2.00
2023-04-01T13:29:58.842Z,0.67
2023-04-01T13:32:22.272Z,1.00
2023-04-01T13:34:40.655Z,2.33
2023-04-01T13:37:00.424Z,2.00
2023-04-01T13:39:19.097Z,3.67
2023-04-01T13:41:34.160Z,1.00
2023-04-01T13:43:40.696Z,1.00
2023-04-01T13:46:13.639Z,5.00
2023-04-01T13:48:45.278Z,2.33
2023-04-01T13:51:11.268Z,4.33
2023-04-01T13:53:38.850Z,5.00
2023-04-01T13:55:54.482Z,2.00
2023-04-01T13:58:19.842Z,3.00
2023-04-01T14:00:37.139Z,1.00
2023-04-01T14:03:13.894Z,2.67
2023-04-01T14:05:43.381Z,5.67
2023-04-01T14:08:02.843Z,2.00
2023-04-01T14:10:15.668Z,3.00
2023-04-01T14:12:29.738Z,2.67
2023-04-01T14:14:45.920Z,2.00
2023-04-01T14:17:20.872Z,2.00
2023-04-01T14:19:34.895Z,1.33
2023-04-01T14:21:45.026Z,4.33
2023-04-01T14:24:10.459Z,2.00
2023-04-01T14:26:36.681Z,2.00
2023-04-01T14:28:45.156Z,1.33
2023-04-01T14:31:03.357Z,0.00
2023-04-01T14:33:22.386Z,3.00
2023-04-01T14:35:38.621Z,2.00
2023-04-01T14:38:06.014Z,2.00
2023-04-01T14:40:22.873Z,6.00
2023-04-01T14:42:57.215Z,0.00
2023-04-01T14:45:27.904Z,1.67
2023-04-01T14:47:43.715Z,1.33
2023-04-01T14:49:49.436Z,2.00
2023-04-01T14:51:53.634Z,1.33
2023-04-01T14:54:03.554Z,3.00
2023-04-01T14:56:07.245Z,1.00
2023-04-01T14:58:11.853Z,2.00
2023-04-01T15:00:15.925Z,2.00
2023-04-01T15:02:46.591Z,1.00
2023-04-01T15:04:55.458Z,3.00
2023-04-01T15:07:08.963Z,1.67
2023-04-01T15:09:23.386Z,2.00
2023-04-01T15:11:35.436Z,1.67
2023-04-01T15:14:00.253Z,3.00
2023-04-01T15:16:14.515Z,1.00
2023-04-01T15:18:26.991Z,1.00
2023-04-01T15:20:49.361Z,3.00
2023-04-01T15:23:02.303Z,1.00
2023-04-01T15:25:27.035Z,1.00
2023-04-01T15:27:41.402Z,0.33
2023-04-01T15:30:03.352Z,1.00
2023-04-01T15:32:17.231Z,1.67
2023-04-01T15:34:38.452Z,0.67
2023-04-01T15:36:52.425Z,1.00
2023-04-01T15:38:59.071Z,0.00
2023-04-01T15:41:09.600Z,1.00
2023-04-01T15:43:27.187Z,1.00
2023-04-01T15:45:40.368Z,1.00
2023-04-01T15:47:47.130Z,2.00
2023-04-01T15:49:57.610Z,1.00
2023-04-01T15:52:07.479Z,2.00
2023-04-01T15:55:02.345Z,3.33
2023-04-01T15:57:21.283Z,0.00
2023-04-01T15:59:45.787Z,2.00
2023-04-01T16:01:57.999Z,1.00
2023-04-01T16:04:19.396Z,1.00
2023-04-01T16:06:43.699Z,1.00
2023-04-01T16:09:08.327Z,2.67
2023-04-01T16:11:24.256Z,1.00
2023-04-01T16:13:41.968Z,1.00
2023-04-01T16:15:58.536Z,0.67
2023-04-01T16:18:23.078Z,1.00
2023-04-01T16:20:41.504Z,1.33
2023-04-01T16:22:50.235Z,1.00
2023-04-01T16:25:01.661Z,1.00
2023-04-01T16:27:06.991Z,2.00
2023-04-01T16:29:17.221Z,1.00
2023-04-01T16:31:32.494Z,1.00
2023-04-01T16:33:44.449Z,2.00
2023-04-01T16:35:54.438Z,0.67
2023-04-01T16:38:04.881Z,1.00
2023-04-01T16:40:18.604Z,1.00
2023-04-01T16:42:33.368Z,1.00
2023-04-01T16:44:51.299Z,1.00
2023-04-01T16:46:57.338Z,0.33
2023-04-01T16:49:17.948Z,0.00
2023-04-01T16:51:21.700Z,0.00
2023-04-01T16:53:36.427Z,0.00
2023-04-01T16:55:48.891Z,0.00
2023-04-01T16:57:52.917Z,0.67
2023-04-01T16:59:58.972Z,0.00
2023-04-01T17:02:10.654Z,2.00
2023-04-01T17:04:23.529Z,0.00
2023-04-01T17:06:37.644Z,0.00
2023-04-01T17:08:54.067Z,4.00
2023-04-01T17:11:04.993Z,0.00
2023-04-01T17:13:35.490Z,0.33
2023-04-01T17:15:46.346Z,0.00
2023-04-01T17:18:00.483Z,0.00
2023-04-01T17:20:27.286Z,0.00
2023-04-01T17:22:35.710Z,1.33
2023-04-01T17:24:51.521Z,0.00
2023-04-01T17:27:04.417Z,0.33
2023-04-01T17:29:21.251Z,0.00
2023-04-01T17:31:42.164Z,0.33
2023-04-01T17:33:59.928Z,0.00
2023-04-01T17:36:10.524Z,0.00
2023-04-01T17:38:25.122Z,0.00
2023-04-01T17:40:46.987Z,1.00
2023-04-01T17:42:56.983Z,0.67
2023-04-01T17:45:06.174Z,0.00
2023-04-01T17:47:30.537Z,0.00
2023-04-01T17:49:39.585Z,0.00
2023-04-01T17:51:49.940Z,0.00
2023-04-01T17:54:01.352Z,0.00
2023-04-01T17:56:29.318Z,0.00
2023-04-01T17:58:35.821Z,0.00
2023-04-01T18:00:53.818Z,0.67
2023-04-01T18:03:13.769Z,0.00
2023-04-01T18:05:28.254Z,0.00
2023-04-01T18:07:44.724Z,0.00
2023-04-01T18:09:58.592Z,0.00
2023-04-01T18:12:14.496Z,0.00
2023-04-01T18:14:54.939Z,0.00
2023-04-01T18:17:12.287Z,0.00
2023-04-01T18:19:29.577Z,0.00
2023-04-01T18:21:43.545Z,0.00
2023-04-01T18:23:59.079Z,0.00
2023-04-01T18:26:08.834Z,0.00
2023-04-01T18:28:23.339Z,0.00
2023-04-01T18:30:30.469Z,0.00
2023-04-01T18:32:36.642Z,0.00
2023-04-01T18:34:51.795Z,0.00
2023-04-01T18:37:00.418Z,0.00
2023-04-01T18:39:09.218Z,0.67
2023-04-01T18:41:15.825Z,0.67
2023-04-01T18:43:23.993Z,0.00
2023-04-01T18:45:31.538Z,0.00
2023-04-01T18:47:43.992Z,0.00
2023-04-01T18:49:54.355Z,0.00
2023-04-01T18:52:04.214Z,0.00
2023-04-01T18:54:13.841Z,0.00
2023-04-01T18:56:27.482Z,0.00
2023-04-01T18:58:36.303Z,0.00
2023-04-01T19:00:41.200Z,0.00
2023-04-01T19:02:49.797Z,0.00
2023-04-01T19:04:58.526Z,0.00
2023-04-01T19:07:41.678Z,1.33
2023-04-01T19:09:46.428Z,0.33
2023-04-01T19:12:05.387Z,0.00
2023-04-01T19:14:17.746Z,0.00
2023-04-01T19:16:32.244Z,0.00
2023-04-01T19:18:56.625Z,0.00
2023-04-01T19:21:02.585Z,0.00
2023-04-01T19:23:29.378Z,0.00
2023-04-01T19:25:37.984Z,0.00
2023-04-01T19:27:47.793Z,0.00
2023-04-01T19:30:08.468Z,0.00
2023-04-01T19:32:23.499Z,0.00
2023-04-01T19:34:35.685Z,0.00
2023-04-01T19:36:43.486Z,0.00
2023-04-01T19:38:56.655Z,0.00
2023-04-01T19:41:05.320Z,0.00
2023-04-01T19:43:20.294Z,0.00
2023-04-01T19:45:33.853Z,0.00
2023-04-01T19:47:45.789Z,0.00
2023-04-01T19:49:59.231Z,1.00
2023-04-01T19:52:09.310Z,0.00
2023-04-01T19:54:26.704Z,0.00
2023-04-01T19:56:35.770Z,0.67
2023-04-01T19:58:46.453Z,0.00
2023-04-01T20:00:52.761Z,0.00
2023-04-01T20:03:03.450Z,0.00
2023-04-01T20:05:25.131Z,0.00
2023-04-01T20:07:34.934Z,0.33
2023-04-01T20:09:55.159Z,0.00
2023-04-01T20:12:01.069Z,0.00
2023-04-01T20:14:13.926Z,1.00
2023-04-01T20:16:17.571Z,0.00
2023-04-01T20:18:24.697Z,1.00
2023-04-01T20:20:29.523Z,0.00
2023-04-01T20:22:39.675Z,2.00
2023-04-01T20:24:45.909Z,0.00
2023-04-01T20:26:52.431Z,0.00
2023-04-01T20:29:34.328Z,1.00
2023-04-01T20:31:38.635Z,0.33
2023-04-01T20:33:59.814Z,0.00
2023-04-01T20:36:10.633Z,0.00
2023-04-01T20:38:42.157Z,0.00
2023-04-01T20:40:48.179Z,1.00
2023-04-01T20:43:24.039Z,0.00
2023-04-01T20:45:34.801Z,0.00
2023-04-01T20:47:54.015Z,0.00
2023-04-01T20:50:00.941Z,0.00
2023-04-01T20:52:18.709Z,0.67
2023-04-01T20:54:39.067Z,0.00
2023-04-01T20:57:01.816Z,0.00
2023-04-01T20:59:24.799Z,0.00
2023-04-01T21:01:35.847Z,0.00
2023-04-01T21:03:46.206Z,0.00
2023-04-01T21:06:18.662Z,0.67
2023-04-01T21:08:33.336Z,0.00
2023-04-01T21:10:43.158Z,0.00
2023-04-01T21:12:55.510Z,0.00
2023-04-01T21:15:26.316Z,0.00
2023-04-01T21:17:39.242Z,0.00
2023-04-01T21:19:56.488Z,0.00
2023-04-01T21:22:28.699Z,0.00
2023-04-01T21:24:54.933Z,0.00
2023-04-01T21:27:06.632Z,0.00
2023-04-01T21:29:34.585Z,0.00
2023-04-01T21:31:50.211Z,0.67
2023-04-01T21:34:05.330Z,0.00
2023-04-01T21:36:21.880Z,0.00
2023-04-01T21:38:47.126Z,0.33
2023-04-01T21:41:13.405Z,0.00
2023-04-01T21:43:36.428Z,0.00
2023-04-01T21:46:26.323Z,0.00
2023-04-01T21:48:54.011Z,0.00
2023-04-01T21:51:22.739Z,2.00
2023-04-01T21:53:59.817Z,0.00
2023-04-01T21:56:23.812Z,0.00
2023-04-01T21:59:06.578Z,0.00
2023-04-01T22:01:31.908Z,0.00
2023-04-01T22:03:58.280Z,0.00
2023-04-01T22:06:11.398Z,0.00
2023-04-01T22:08:33.037Z,0.00
2023-04-01T22:10:42.517Z,1.00
2023-04-01T22:12:51.437Z,0.00
2023-04-01T22:15:02.466Z,1.00
2023-04-01T22:17:12.044Z,0.00
2023-04-01T22:19:21.389Z,0.00
2023-04-01T22:21:31.524Z,0.00
2023-04-01T22:23:40.917Z,0.00
2023-04-01T22:25:48.678Z,0.00
2023-04-01T22:27:55.978Z,0.00
2023-04-01T22:30:08.647Z,0.00
2023-04-01T22:32:17.568Z,0.00
2023-04-01T22:34:28.931Z,0.00
2023-04-01T22:36:41.371Z,0.00
2023-04-01T22:39:01.940Z,0.00
2023-04-01T22:41:13.134Z,0.00
2023-04-01T22:43:19.961Z,0.00
2023-04-01T22:45:47.405Z,0.00
2023-04-01T22:47:59.002Z,0.00
2023-04-01T22:50:10.638Z,0.00
2023-04-01T22:52:21.294Z,0.00
2023-04-01T22:54:30.108Z,0.00
2023-04-01T22:56:37.732Z,0.00
2023-04-01T22:58:47.773Z,0.00
2023-04-01T23:00:53.609Z,0.00
2023-04-01T23:03:12.716Z,1.00
2023-04-01T23:05:21.122Z,0.00
2023-04-01T23:07:40.031Z,0.00
2023-04-01T23:09:41.899Z,0.00
2023-04-01T23:11:52.026Z,0.00
2023-04-01T23:14:01.373Z,0.00
2023-04-01T23:16:03.320Z,0.33
2023-04-01T23:18:20.358Z,0.00
2023-04-01T23:20:54.025Z,1.00
2023-04-01T23:23:10.127Z,0.00
2023-04-01T23:25:25.080Z,0.00
2023-04-01T23:27:33.056Z,0.00
2023-04-01T23:29:37.500Z,0.00
2023-04-01T23:31:41.407Z,0.00
2023-04-01T23:33:43.483Z,0.00
2023-04-01T23:35:50.239Z,0.00
2023-04-01T23:37:52.634Z,0.00
2023-04-01T23:39:57.441Z,0.00
2023-04-01T23:42:03.200Z,0.00
2023-04-01T23:44:10.065Z,0.00
2023-04-01T23:46:13.845Z,0.00
2023-04-01T23:48:17.644Z,0.00
2023-04-01T23:50:23.940Z,0.00
2023-04-01T23:52:28.833Z,0.00
2023-04-01T23:54:33.600Z,0.00
2023-04-01T23:56:39.666Z,0.00
2023-04-01T23:58:45.292Z,0.00
